sensor_id;sensor_type;location;lat;lon;timestamp;temperature;humidity
72128;DHT22;60000;51.030;7.024;2023-06-14T00:00:46;19.44;44.59
72128;DHT22;60000;51.030;7.024;2023-06-14T00:03:13;19.41;44.60
72128;DHT22;60000;51.030;7.024;2023-06-14T00:05:42;19.38;44.88
72128;DHT22;60000;51.030;7.024;2023-06-14T00:08:09;19.33;44.77
72128;DHT22;60000;51.030;7.024;2023-06-14T00:10:35;19.30;44.95
72128;DHT22;60000;51.030;7.024;2023-06-14T00:13:02;19.27;45.13
72128;DHT22;60000;51.030;7.024;2023-06-14T00:15:27;19.24;44.94
72128;DHT22;60000;51.030;7.024;2023-06-14T00:17:53;19.23;45.04
72128;DHT22;60000;51.030;7.024;2023-06-14T00:20:20;19.17;45.08
72128;DHT22;60000;51.030;7.024;2023-06-14T00:22:46;19.16;45.17
72128;DHT22;60000;51.030;7.024;2023-06-14T00:25:11;19.12;45.00
72128;DHT22;60000;51.030;7.024;2023-06-14T00:27:36;19.10;44.99
72128;DHT22;60000;51.030;7.024;2023-06-14T00:30:01;19.05;45.10
72128;DHT22;60000;51.030;7.024;2023-06-14T00:32:27;19.02;44.93
72128;DHT22;60000;51.030;7.024;2023-06-14T00:34:53;18.99;45.09
72128;DHT22;60000;51.030;7.024;2023-06-14T00:37:18;18.95;45.08
72128;DHT22;60000;51.030;7.024;2023-06-14T00:39:43;18.91;45.37
72128;DHT22;60000;51.030;7.024;2023-06-14T00:42:08;18.84;45.46
72128;DHT22;60000;51.030;7.024;2023-06-14T00:44:34;18.76;45.69
72128;DHT22;60000;51.030;7.024;2023-06-14T00:46:59;18.75;45.72
72128;DHT22;60000;51.030;7.024;2023-06-14T00:49:24;18.71;45.84
72128;DHT22;60000;51.030;7.024;2023-06-14T00:51:50;18.68;46.03
72128;DHT22;60000;51.030;7.024;2023-06-14T00:54:16;18.65;45.98
72128;DHT22;60000;51.030;7.024;2023-06-14T00:56:42;18.62;46.16
72128;DHT22;60000;51.030;7.024;2023-06-14T00:59:09;18.64;45.98
72128;DHT22;60000;51.030;7.024;2023-06-14T01:01:36;18.61;46.10
72128;DHT22;60000;51.030;7.024;2023-06-14T01:04:02;18.59;46.12
72128;DHT22;60000;51.030;7.024;2023-06-14T01:12:00;18.49;46.29
72128;DHT22;60000;51.030;7.024;2023-06-14T01:14:27;18.43;46.46
72128;DHT22;60000;51.030;7.024;2023-06-14T01:16:53;18.37;46.62
72128;DHT22;60000;51.030;7.024;2023-06-14T01:19:20;18.34;46.65
72128;DHT22;60000;51.030;7.024;2023-06-14T01:21:48;18.28;46.96
72128;DHT22;60000;51.030;7.024;2023-06-14T01:24:16;18.24;46.96
72128;DHT22;60000;51.030;7.024;2023-06-14T01:26:41;18.18;47.10
72128;DHT22;60000;51.030;7.024;2023-06-14T01:29:11;18.16;47.09
72128;DHT22;60000;51.030;7.024;2023-06-14T01:31:37;18.14;47.06
72128;DHT22;60000;51.030;7.024;2023-06-14T01:34:07;18.10;46.91
72128;DHT22;60000;51.030;7.024;2023-06-14T01:36:36;18.06;46.95
72128;DHT22;60000;51.030;7.024;2023-06-14T01:39:02;18.04;46.94
72128;DHT22;60000;51.030;7.024;2023-06-14T01:41:29;18.04;47.06
72128;DHT22;60000;51.030;7.024;2023-06-14T01:43:56;18.00;47.03
72128;DHT22;60000;51.030;7.024;2023-06-14T01:46:23;17.93;47.17
72128;DHT22;60000;51.030;7.024;2023-06-14T01:48:48;17.86;47.77
72128;DHT22;60000;51.030;7.024;2023-06-14T01:51:14;17.76;48.28
72128;DHT22;60000;51.030;7.024;2023-06-14T01:53:39;17.65;48.88
72128;DHT22;60000;51.030;7.024;2023-06-14T01:56:05;17.55;49.42
72128;DHT22;60000;51.030;7.024;2023-06-14T01:58:31;17.43;50.00
72128;DHT22;60000;51.030;7.024;2023-06-14T02:00:57;17.31;50.27
72128;DHT22;60000;51.030;7.024;2023-06-14T02:03:23;17.21;50.74
72128;DHT22;60000;51.030;7.024;2023-06-14T02:05:49;17.12;51.74
72128;DHT22;60000;51.030;7.024;2023-06-14T02:08:14;17.03;51.95
72128;DHT22;60000;51.030;7.024;2023-06-14T02:10:40;16.95;51.62
72128;DHT22;60000;51.030;7.024;2023-06-14T02:13:05;16.90;51.87
72128;DHT22;60000;51.030;7.024;2023-06-14T02:15:30;16.84;51.72
72128;DHT22;60000;51.030;7.024;2023-06-14T02:18:00;16.77;51.56
72128;DHT22;60000;51.030;7.024;2023-06-14T02:20:25;16.73;50.84
72128;DHT22;60000;51.030;7.024;2023-06-14T02:22:51;16.71;51.40
72128;DHT22;60000;51.030;7.024;2023-06-14T02:25:16;16.69;50.64
72128;DHT22;60000;51.030;7.024;2023-06-14T02:27:41;16.64;51.17
72128;DHT22;60000;51.030;7.024;2023-06-14T02:30:07;16.59;51.98
72128;DHT22;60000;51.030;7.024;2023-06-14T02:32:33;16.53;53.05
72128;DHT22;60000;51.030;7.024;2023-06-14T02:35:00;16.45;54.25
72128;DHT22;60000;51.030;7.024;2023-06-14T02:37:26;16.34;55.17
72128;DHT22;60000;51.030;7.024;2023-06-14T02:39:51;16.28;55.92
72128;DHT22;60000;51.030;7.024;2023-06-14T02:42:16;16.21;56.51
72128;DHT22;60000;51.030;7.024;2023-06-14T02:44:42;16.15;57.39
72128;DHT22;60000;51.030;7.024;2023-06-14T02:47:08;16.05;56.60
72128;DHT22;60000;51.030;7.024;2023-06-14T02:49:34;15.99;56.19
72128;DHT22;60000;51.030;7.024;2023-06-14T02:51:59;15.94;56.64
72128;DHT22;60000;51.030;7.024;2023-06-14T02:54:25;15.87;56.31
72128;DHT22;60000;51.030;7.024;2023-06-14T02:56:50;15.80;56.75
72128;DHT22;60000;51.030;7.024;2023-06-14T02:59:15;15.72;56.90
72128;DHT22;60000;51.030;7.024;2023-06-14T03:01:42;15.70;56.50
72128;DHT22;60000;51.030;7.024;2023-06-14T03:04:08;15.67;56.94
72128;DHT22;60000;51.030;7.024;2023-06-14T03:06:33;15.68;57.48
72128;DHT22;60000;51.030;7.024;2023-06-14T03:09:00;15.65;56.48
72128;DHT22;60000;51.030;7.024;2023-06-14T03:11:29;15.61;57.33
72128;DHT22;60000;51.030;7.024;2023-06-14T03:13:54;15.60;57.45
72128;DHT22;60000;51.030;7.024;2023-06-14T03:16:21;15.55;57.29
72128;DHT22;60000;51.030;7.024;2023-06-14T03:18:51;15.53;57.45
72128;DHT22;60000;51.030;7.024;2023-06-14T03:21:17;15.47;56.89
72128;DHT22;60000;51.030;7.024;2023-06-14T03:23:43;15.44;56.83
72128;DHT22;60000;51.030;7.024;2023-06-14T03:26:09;15.43;57.17
72128;DHT22;60000;51.030;7.024;2023-06-14T03:28:38;15.43;57.35
72128;DHT22;60000;51.030;7.024;2023-06-14T03:31:03;15.40;57.48
72128;DHT22;60000;51.030;7.024;2023-06-14T03:33:28;15.40;57.78
72128;DHT22;60000;51.030;7.024;2023-06-14T03:35:54;15.36;57.25
72128;DHT22;60000;51.030;7.024;2023-06-14T03:38:19;15.34;58.04
72128;DHT22;60000;51.030;7.024;2023-06-14T03:40:45;15.31;58.10
72128;DHT22;60000;51.030;7.024;2023-06-14T03:43:10;15.29;57.73
72128;DHT22;60000;51.030;7.024;2023-06-14T03:45:35;15.27;57.44
72128;DHT22;60000;51.030;7.024;2023-06-14T03:48:01;15.29;57.38
72128;DHT22;60000;51.030;7.024;2023-06-14T03:50:26;15.30;57.86
72128;DHT22;60000;51.030;7.024;2023-06-14T03:52:52;15.33;58.43
72128;DHT22;60000;51.030;7.024;2023-06-14T03:55:18;15.33;58.91
72128;DHT22;60000;51.030;7.024;2023-06-14T03:57:43;15.29;58.75
72128;DHT22;60000;51.030;7.024;2023-06-14T04:00:09;15.27;59.05
72128;DHT22;60000;51.030;7.024;2023-06-14T04:02:35;15.26;59.07
72128;DHT22;60000;51.030;7.024;2023-06-14T04:05:02;15.24;59.57
72128;DHT22;60000;51.030;7.024;2023-06-14T04:07:27;15.22;59.25
72128;DHT22;60000;51.030;7.024;2023-06-14T04:09:54;15.22;59.28
72128;DHT22;60000;51.030;7.024;2023-06-14T04:12:19;15.24;59.51
72128;DHT22;60000;51.030;7.024;2023-06-14T04:14:45;15.26;59.91
72128;DHT22;60000;51.030;7.024;2023-06-14T04:17:11;15.26;59.76
72128;DHT22;60000;51.030;7.024;2023-06-14T04:19:36;15.27;59.64
72128;DHT22;60000;51.030;7.024;2023-06-14T04:22:01;15.31;59.34
72128;DHT22;60000;51.030;7.024;2023-06-14T04:24:27;15.36;59.05
72128;DHT22;60000;51.030;7.024;2023-06-14T04:26:58;15.39;58.84
72128;DHT22;60000;51.030;7.024;2023-06-14T04:29:25;15.44;58.84
72128;DHT22;60000;51.030;7.024;2023-06-14T04:31:54;15.49;58.67
72128;DHT22;60000;51.030;7.024;2023-06-14T04:34:19;15.53;59.34
72128;DHT22;60000;51.030;7.024;2023-06-14T04:36:47;15.51;57.95
72128;DHT22;60000;51.030;7.024;2023-06-14T04:39:18;15.54;59.23
72128;DHT22;60000;51.030;7.024;2023-06-14T04:41:44;15.57;59.45
72128;DHT22;60000;51.030;7.024;2023-06-14T04:44:10;15.61;60.07
72128;DHT22;60000;51.030;7.024;2023-06-14T04:46:36;15.60;59.69
72128;DHT22;60000;51.030;7.024;2023-06-14T04:49:11;15.64;60.46
72128;DHT22;60000;51.030;7.024;2023-06-14T04:51:39;15.70;59.54
72128;DHT22;60000;51.030;7.024;2023-06-14T04:54:05;15.78;59.00
72128;DHT22;60000;51.030;7.024;2023-06-14T04:56:35;15.87;58.24
72128;DHT22;60000;51.030;7.024;2023-06-14T04:59:00;15.97;57.63
72128;DHT22;60000;51.030;7.024;2023-06-14T05:01:25;16.08;56.84
72128;DHT22;60000;51.030;7.024;2023-06-14T05:03:51;16.15;56.21
72128;DHT22;60000;51.030;7.024;2023-06-14T05:06:17;16.25;55.89
72128;DHT22;60000;51.030;7.024;2023-06-14T05:08:42;16.29;55.41
72128;DHT22;60000;51.030;7.024;2023-06-14T05:11:07;16.34;55.22
72128;DHT22;60000;51.030;7.024;2023-06-14T05:13:33;16.39;54.50
72128;DHT22;60000;51.030;7.024;2023-06-14T05:15:59;16.43;54.66
72128;DHT22;60000;51.030;7.024;2023-06-14T05:18:25;16.50;55.03
72128;DHT22;60000;51.030;7.024;2023-06-14T05:20:51;16.55;54.96
72128;DHT22;60000;51.030;7.024;2023-06-14T05:23:16;16.56;53.91
72128;DHT22;60000;51.030;7.024;2023-06-14T05:25:45;16.60;53.45
72128;DHT22;60000;51.030;7.024;2023-06-14T05:28:11;16.70;54.04
72128;DHT22;60000;51.030;7.024;2023-06-14T05:30:38;16.76;53.95
72128;DHT22;60000;51.030;7.024;2023-06-14T05:33:04;16.83;53.96
72128;DHT22;60000;51.030;7.024;2023-06-14T05:35:29;16.88;53.35
72128;DHT22;60000;51.030;7.024;2023-06-14T05:37:55;17.00;53.43
72128;DHT22;60000;51.030;7.024;2023-06-14T05:40:20;17.07;53.32
72128;DHT22;60000;51.030;7.024;2023-06-14T05:42:45;17.19;52.77
72128;DHT22;60000;51.030;7.024;2023-06-14T05:45:11;17.29;52.61
72128;DHT22;60000;51.030;7.024;2023-06-14T05:47:36;17.40;52.58
72128;DHT22;60000;51.030;7.024;2023-06-14T05:50:01;17.50;52.35
72128;DHT22;60000;51.030;7.024;2023-06-14T05:52:27;17.65;51.98
72128;DHT22;60000;51.030;7.024;2023-06-14T05:54:53;17.96;52.36
72128;DHT22;60000;51.030;7.024;2023-06-14T05:57:18;18.36;50.68
72128;DHT22;60000;51.030;7.024;2023-06-14T05:59:43;18.84;50.34
72128;DHT22;60000;51.030;7.024;2023-06-14T06:02:09;19.31;48.91
72128;DHT22;60000;51.030;7.024;2023-06-14T06:04:34;19.88;49.22
72128;DHT22;60000;51.030;7.024;2023-06-14T06:07:00;20.63;47.36
72128;DHT22;60000;51.030;7.024;2023-06-14T06:09:25;21.21;46.11
72128;DHT22;60000;51.030;7.024;2023-06-14T06:11:51;21.94;44.60
72128;DHT22;60000;51.030;7.024;2023-06-14T06:14:16;22.48;44.10
72128;DHT22;60000;51.030;7.024;2023-06-14T06:16:41;23.10;40.91
72128;DHT22;60000;51.030;7.024;2023-06-14T06:19:07;23.40;39.31
72128;DHT22;60000;51.030;7.024;2023-06-14T06:21:32;23.91;38.56
72128;DHT22;60000;51.030;7.024;2023-06-14T06:23:57;24.59;38.82
72128;DHT22;60000;51.030;7.024;2023-06-14T06:26:23;24.84;36.43
72128;DHT22;60000;51.030;7.024;2023-06-14T06:28:48;25.42;38.11
72128;DHT22;60000;51.030;7.024;2023-06-14T06:31:13;26.07;36.16
72128;DHT22;60000;51.030;7.024;2023-06-14T06:33:39;26.50;35.38
72128;DHT22;60000;51.030;7.024;2023-06-14T06:36:05;27.29;35.25
72128;DHT22;60000;51.030;7.024;2023-06-14T06:38:30;27.56;32.90
72128;DHT22;60000;51.030;7.024;2023-06-14T06:40:56;28.12;32.96
72128;DHT22;60000;51.030;7.024;2023-06-14T06:43:21;28.63;32.20
72128;DHT22;60000;51.030;7.024;2023-06-14T06:45:47;28.80;31.26
72128;DHT22;60000;51.030;7.024;2023-06-14T06:48:12;28.97;30.22
72128;DHT22;60000;51.030;7.024;2023-06-14T06:50:38;28.76;28.91
72128;DHT22;60000;51.030;7.024;2023-06-14T06:53:04;28.77;30.16
72128;DHT22;60000;51.030;7.024;2023-06-14T06:55:30;28.96;30.45
72128;DHT22;60000;51.030;7.024;2023-06-14T06:57:55;29.08;30.15
72128;DHT22;60000;51.030;7.024;2023-06-14T07:00:21;29.39;29.84
72128;DHT22;60000;51.030;7.024;2023-06-14T07:02:46;29.53;28.52
72128;DHT22;60000;51.030;7.024;2023-06-14T07:05:12;29.59;28.46
72128;DHT22;60000;51.030;7.024;2023-06-14T07:07:37;29.69;28.60
72128;DHT22;60000;51.030;7.024;2023-06-14T07:10:04;29.68;27.43
72128;DHT22;60000;51.030;7.024;2023-06-14T07:12:31;29.85;27.30
72128;DHT22;60000;51.030;7.024;2023-06-14T07:14:59;29.92;27.14
72128;DHT22;60000;51.030;7.024;2023-06-14T07:17:24;29.85;27.84
72128;DHT22;60000;51.030;7.024;2023-06-14T07:19:50;30.15;28.28
72128;DHT22;60000;51.030;7.024;2023-06-14T07:22:16;30.22;27.88
72128;DHT22;60000;51.030;7.024;2023-06-14T07:24:41;30.50;26.70
72128;DHT22;60000;51.030;7.024;2023-06-14T07:27:07;30.60;25.67
72128;DHT22;60000;51.030;7.024;2023-06-14T07:29:33;30.47;26.81
72128;DHT22;60000;51.030;7.024;2023-06-14T07:31:58;30.73;26.10
72128;DHT22;60000;51.030;7.024;2023-06-14T07:34:23;30.74;26.55
72128;DHT22;60000;51.030;7.024;2023-06-14T07:36:48;30.74;24.40
72128;DHT22;60000;51.030;7.024;2023-06-14T07:39:14;30.67;24.33
72128;DHT22;60000;51.030;7.024;2023-06-14T07:41:39;30.40;24.68
72128;DHT22;60000;51.030;7.024;2023-06-14T07:44:05;30.71;25.70
72128;DHT22;60000;51.030;7.024;2023-06-14T07:46:30;30.40;24.70
72128;DHT22;60000;51.030;7.024;2023-06-14T07:48:55;30.52;25.39
72128;DHT22;60000;51.030;7.024;2023-06-14T07:51:21;30.73;24.54
72128;DHT22;60000;51.030;7.024;2023-06-14T07:53:48;31.02;23.94
72128;DHT22;60000;51.030;7.024;2023-06-14T07:56:13;31.18;22.82
72128;DHT22;60000;51.030;7.024;2023-06-14T07:58:39;30.95;20.85
72128;DHT22;60000;51.030;7.024;2023-06-14T08:01:04;30.60;23.13
72128;DHT22;60000;51.030;7.024;2023-06-14T08:03:32;30.65;22.54
72128;DHT22;60000;51.030;7.024;2023-06-14T08:05:57;30.96;22.58
72128;DHT22;60000;51.030;7.024;2023-06-14T08:08:22;31.15;22.38
72128;DHT22;60000;51.030;7.024;2023-06-14T08:10:48;31.35;22.07
72128;DHT22;60000;51.030;7.024;2023-06-14T08:13:13;31.65;22.71
72128;DHT22;60000;51.030;7.024;2023-06-14T08:15:38;31.89;22.20
72128;DHT22;60000;51.030;7.024;2023-06-14T08:18:04;31.90;20.84
72128;DHT22;60000;51.030;7.024;2023-06-14T08:20:29;32.13;21.06
72128;DHT22;60000;51.030;7.024;2023-06-14T08:22:56;32.09;21.31
72128;DHT22;60000;51.030;7.024;2023-06-14T08:25:22;32.06;21.66
72128;DHT22;60000;51.030;7.024;2023-06-14T08:27:48;32.11;21.78
72128;DHT22;60000;51.030;7.024;2023-06-14T08:30:13;32.00;21.29
72128;DHT22;60000;51.030;7.024;2023-06-14T08:32:40;31.96;21.30
72128;DHT22;60000;51.030;7.024;2023-06-14T08:35:05;32.06;21.49
72128;DHT22;60000;51.030;7.024;2023-06-14T08:37:32;32.21;21.92
72128;DHT22;60000;51.030;7.024;2023-06-14T08:39:58;32.16;21.21
72128;DHT22;60000;51.030;7.024;2023-06-14T08:42:24;31.41;20.39
72128;DHT22;60000;51.030;7.024;2023-06-14T08:44:49;30.94;21.61
72128;DHT22;60000;51.030;7.024;2023-06-14T08:47:15;30.30;21.50
72128;DHT22;60000;51.030;7.024;2023-06-14T08:49:47;29.76;22.48
72128;DHT22;60000;51.030;7.024;2023-06-14T08:52:15;30.04;24.27
72128;DHT22;60000;51.030;7.024;2023-06-14T08:54:45;30.37;23.01
72128;DHT22;60000;51.030;7.024;2023-06-14T08:57:14;30.37;21.59
72128;DHT22;60000;51.030;7.024;2023-06-14T08:59:47;30.68;23.06
72128;DHT22;60000;51.030;7.024;2023-06-14T09:02:18;31.16;22.98
72128;DHT22;60000;51.030;7.024;2023-06-14T09:04:44;31.49;22.97
72128;DHT22;60000;51.030;7.024;2023-06-14T09:07:11;31.65;22.05
72128;DHT22;60000;51.030;7.024;2023-06-14T09:09:41;31.84;22.08
72128;DHT22;60000;51.030;7.024;2023-06-14T09:12:10;31.84;22.03
72128;DHT22;60000;51.030;7.024;2023-06-14T09:14:36;31.59;21.87
72128;DHT22;60000;51.030;7.024;2023-06-14T09:17:05;31.23;21.32
72128;DHT22;60000;51.030;7.024;2023-06-14T09:19:30;31.33;22.68
72128;DHT22;60000;51.030;7.024;2023-06-14T09:21:56;31.70;24.43
72128;DHT22;60000;51.030;7.024;2023-06-14T09:24:23;31.98;23.47
72128;DHT22;60000;51.030;7.024;2023-06-14T09:26:53;32.07;23.08
72128;DHT22;60000;51.030;7.024;2023-06-14T09:29:18;32.07;22.33
72128;DHT22;60000;51.030;7.024;2023-06-14T09:31:47;32.20;22.81
72128;DHT22;60000;51.030;7.024;2023-06-14T09:34:16;32.24;23.38
72128;DHT22;60000;51.030;7.024;2023-06-14T09:36:43;32.30;22.86
72128;DHT22;60000;51.030;7.024;2023-06-14T09:39:08;32.35;23.19
72128;DHT22;60000;51.030;7.024;2023-06-14T09:41:36;32.04;22.41
72128;DHT22;60000;51.030;7.024;2023-06-14T09:44:04;32.25;23.27
72128;DHT22;60000;51.030;7.024;2023-06-14T09:46:30;32.45;22.83
72128;DHT22;60000;51.030;7.024;2023-06-14T09:48:56;32.64;23.10
72128;DHT22;60000;51.030;7.024;2023-06-14T09:51:22;32.65;22.55
72128;DHT22;60000;51.030;7.024;2023-06-14T09:53:49;32.98;24.21
72128;DHT22;60000;51.030;7.024;2023-06-14T09:56:22;33.17;22.61
72128;DHT22;60000;51.030;7.024;2023-06-14T09:58:49;32.83;22.01
72128;DHT22;60000;51.030;7.024;2023-06-14T10:01:20;32.61;23.00
72128;DHT22;60000;51.030;7.024;2023-06-14T10:03:46;32.28;23.22
72128;DHT22;60000;51.030;7.024;2023-06-14T10:06:12;32.31;23.35
72128;DHT22;60000;51.030;7.024;2023-06-14T10:08:37;32.52;23.71
72128;DHT22;60000;51.030;7.024;2023-06-14T10:11:04;32.79;24.33
72128;DHT22;60000;51.030;7.024;2023-06-14T10:13:31;32.52;22.69
72128;DHT22;60000;51.030;7.024;2023-06-14T10:16:17;31.79;24.34
72128;DHT22;60000;51.030;7.024;2023-06-14T10:21:37;31.35;25.61
72128;DHT22;60000;51.030;7.024;2023-06-14T10:24:08;31.56;25.60
72128;DHT22;60000;51.030;7.024;2023-06-14T10:26:50;31.97;25.15
72128;DHT22;60000;51.030;7.024;2023-06-14T10:29:15;31.84;24.90
72128;DHT22;60000;51.030;7.024;2023-06-14T10:31:46;31.60;24.78
72128;DHT22;60000;51.030;7.024;2023-06-14T10:34:12;31.70;25.69
72128;DHT22;60000;51.030;7.024;2023-06-14T10:36:45;31.39;23.28
72128;DHT22;60000;51.030;7.024;2023-06-14T10:39:15;31.58;24.56
72128;DHT22;60000;51.030;7.024;2023-06-14T10:41:41;31.76;23.50
72128;DHT22;60000;51.030;7.024;2023-06-14T10:46:38;32.32;22.99
72128;DHT22;60000;51.030;7.024;2023-06-14T10:49:04;32.31;21.73
72128;DHT22;60000;51.030;7.024;2023-06-14T10:51:38;32.23;22.06
72128;DHT22;60000;51.030;7.024;2023-06-14T10:54:12;32.34;22.23
72128;DHT22;60000;51.030;7.024;2023-06-14T10:56:47;32.38;23.37
72128;DHT22;60000;51.030;7.024;2023-06-14T10:59:18;32.64;23.43
72128;DHT22;60000;51.030;7.024;2023-06-14T11:04:50;33.05;22.96
72128;DHT22;60000;51.030;7.024;2023-06-14T11:07:48;33.22;23.15
72128;DHT22;60000;51.030;7.024;2023-06-14T11:10:45;33.10;22.36
72128;DHT22;60000;51.030;7.024;2023-06-14T11:13:11;32.95;22.56
72128;DHT22;60000;51.030;7.024;2023-06-14T11:15:37;32.79;23.02
72128;DHT22;60000;51.030;7.024;2023-06-14T11:18:04;32.17;24.03
72128;DHT22;60000;51.030;7.024;2023-06-14T11:20:32;32.27;24.68
72128;DHT22;60000;51.030;7.024;2023-06-14T11:22:57;32.57;24.51
72128;DHT22;60000;51.030;7.024;2023-06-14T11:25:23;32.86;24.34
72128;DHT22;60000;51.030;7.024;2023-06-14T11:27:50;33.00;24.02
72128;DHT22;60000;51.030;7.024;2023-06-14T11:30:16;33.13;24.13
72128;DHT22;60000;51.030;7.024;2023-06-14T11:32:42;33.29;23.38
72128;DHT22;60000;51.030;7.024;2023-06-14T11:35:08;33.20;22.97
72128;DHT22;60000;51.030;7.024;2023-06-14T11:37:35;33.43;23.45
72128;DHT22;60000;51.030;7.024;2023-06-14T11:40:03;33.26;22.03
72128;DHT22;60000;51.030;7.024;2023-06-14T11:42:33;32.99;21.84
72128;DHT22;60000;51.030;7.024;2023-06-14T11:44:58;32.75;22.59
72128;DHT22;60000;51.030;7.024;2023-06-14T11:47:23;32.85;22.51
72128;DHT22;60000;51.030;7.024;2023-06-14T11:49:49;32.98;22.08
72128;DHT22;60000;51.030;7.024;2023-06-14T11:52:14;33.03;23.29
72128;DHT22;60000;51.030;7.024;2023-06-14T11:54:40;32.83;23.18
72128;DHT22;60000;51.030;7.024;2023-06-14T11:57:07;32.92;22.82
72128;DHT22;60000;51.030;7.024;2023-06-14T11:59:38;33.19;22.88
72128;DHT22;60000;51.030;7.024;2023-06-14T12:02:04;33.27;22.93
72128;DHT22;60000;51.030;7.024;2023-06-14T12:04:29;33.22;22.49
72128;DHT22;60000;51.030;7.024;2023-06-14T12:06:55;33.02;21.82
72128;DHT22;60000;51.030;7.024;2023-06-14T12:09:23;32.92;21.04
72128;DHT22;60000;51.030;7.024;2023-06-14T12:11:49;33.06;21.46
72128;DHT22;60000;51.030;7.024;2023-06-14T12:14:15;33.08;20.77
72128;DHT22;60000;51.030;7.024;2023-06-14T12:16:42;32.82;21.10
72128;DHT22;60000;51.030;7.024;2023-06-14T12:19:14;32.92;21.27
72128;DHT22;60000;51.030;7.024;2023-06-14T12:21:40;33.08;21.07
72128;DHT22;60000;51.030;7.024;2023-06-14T12:24:07;32.88;20.74
72128;DHT22;60000;51.030;7.024;2023-06-14T12:26:32;32.89;21.31
72128;DHT22;60000;51.030;7.024;2023-06-14T12:28:58;32.98;21.71
72128;DHT22;60000;51.030;7.024;2023-06-14T12:31:23;32.90;21.15
72128;DHT22;60000;51.030;7.024;2023-06-14T12:33:49;32.76;21.71
72128;DHT22;60000;51.030;7.024;2023-06-14T12:36:15;32.88;21.64
72128;DHT22;60000;51.030;7.024;2023-06-14T12:38:41;32.92;21.93
72128;DHT22;60000;51.030;7.024;2023-06-14T12:41:07;33.09;21.44
72128;DHT22;60000;51.030;7.024;2023-06-14T12:43:32;33.15;21.55
72128;DHT22;60000;51.030;7.024;2023-06-14T12:45:58;33.17;21.69
72128;DHT22;60000;51.030;7.024;2023-06-14T12:48:23;32.99;21.78
72128;DHT22;60000;51.030;7.024;2023-06-14T12:50:49;33.02;22.00
72128;DHT22;60000;51.030;7.024;2023-06-14T12:53:14;32.89;21.64
72128;DHT22;60000;51.030;7.024;2023-06-14T12:55:39;32.58;22.41
72128;DHT22;60000;51.030;7.024;2023-06-14T12:58:05;31.80;22.84
72128;DHT22;60000;51.030;7.024;2023-06-14T13:00:30;31.53;23.92
72128;DHT22;60000;51.030;7.024;2023-06-14T13:02:59;31.63;22.88
72128;DHT22;60000;51.030;7.024;2023-06-14T13:05:24;31.66;23.13
72128;DHT22;60000;51.030;7.024;2023-06-14T13:07:50;31.69;23.50
72128;DHT22;60000;51.030;7.024;2023-06-14T13:10:16;31.63;23.82
72128;DHT22;60000;51.030;7.024;2023-06-14T13:12:41;31.80;23.62
72128;DHT22;60000;51.030;7.024;2023-06-14T13:15:07;31.70;23.54
72128;DHT22;60000;51.030;7.024;2023-06-14T13:17:33;31.53;24.16
72128;DHT22;60000;51.030;7.024;2023-06-14T13:20:06;31.16;24.86
72128;DHT22;60000;51.030;7.024;2023-06-14T13:22:32;31.16;25.07
72128;DHT22;60000;51.030;7.024;2023-06-14T13:24:58;31.23;24.38
72128;DHT22;60000;51.030;7.024;2023-06-14T13:27:23;31.41;25.11
72128;DHT22;60000;51.030;7.024;2023-06-14T13:29:49;31.29;24.94
72128;DHT22;60000;51.030;7.024;2023-06-14T13:32:15;31.42;24.33
72128;DHT22;60000;51.030;7.024;2023-06-14T13:34:40;31.42;24.60
72128;DHT22;60000;51.030;7.024;2023-06-14T13:37:06;31.07;24.81
72128;DHT22;60000;51.030;7.024;2023-06-14T13:39:31;30.88;24.80
72128;DHT22;60000;51.030;7.024;2023-06-14T13:41:56;30.44;24.98
72128;DHT22;60000;51.030;7.024;2023-06-14T13:44:21;30.30;25.39
72128;DHT22;60000;51.030;7.024;2023-06-14T13:46:47;30.56;25.45
72128;DHT22;60000;51.030;7.024;2023-06-14T13:49:12;30.73;25.57
72128;DHT22;60000;51.030;7.024;2023-06-14T13:51:38;30.88;24.90
72128;DHT22;60000;51.030;7.024;2023-06-14T13:54:04;30.84;24.54
72128;DHT22;60000;51.030;7.024;2023-06-14T13:56:29;30.83;24.81
72128;DHT22;60000;51.030;7.024;2023-06-14T13:58:55;30.85;24.25
72128;DHT22;60000;51.030;7.024;2023-06-14T14:01:21;30.83;24.61
72128;DHT22;60000;51.030;7.024;2023-06-14T14:03:48;30.95;25.31
72128;DHT22;60000;51.030;7.024;2023-06-14T14:06:15;30.92;23.74
72128;DHT22;60000;51.030;7.024;2023-06-14T14:08:41;30.90;24.22
72128;DHT22;60000;51.030;7.024;2023-06-14T14:11:07;30.95;24.81
72128;DHT22;60000;51.030;7.024;2023-06-14T14:13:33;30.99;24.56
72128;DHT22;60000;51.030;7.024;2023-06-14T14:15:58;31.01;24.04
72128;DHT22;60000;51.030;7.024;2023-06-14T14:18:24;30.40;24.48
72128;DHT22;60000;51.030;7.024;2023-06-14T14:20:49;30.06;24.40
72128;DHT22;60000;51.030;7.024;2023-06-14T14:23:15;29.96;24.96
72128;DHT22;60000;51.030;7.024;2023-06-14T14:25:40;30.09;25.00
72128;DHT22;60000;51.030;7.024;2023-06-14T14:28:05;30.25;25.16
72128;DHT22;60000;51.030;7.024;2023-06-14T14:30:31;30.41;26.04
72128;DHT22;60000;51.030;7.024;2023-06-14T14:32:56;30.39;24.46
72128;DHT22;60000;51.030;7.024;2023-06-14T14:35:21;30.34;24.40
72128;DHT22;60000;51.030;7.024;2023-06-14T14:37:48;30.27;24.66
72128;DHT22;60000;51.030;7.024;2023-06-14T14:40:14;30.25;24.25
72128;DHT22;60000;51.030;7.024;2023-06-14T14:42:39;30.30;24.75
72128;DHT22;60000;51.030;7.024;2023-06-14T14:45:05;30.36;25.07
72128;DHT22;60000;51.030;7.024;2023-06-14T14:47:31;30.19;24.62
72128;DHT22;60000;51.030;7.024;2023-06-14T14:49:56;30.12;25.22
72128;DHT22;60000;51.030;7.024;2023-06-14T14:52:21;29.84;24.97
72128;DHT22;60000;51.030;7.024;2023-06-14T14:54:47;29.23;25.34
72128;DHT22;60000;51.030;7.024;2023-06-14T14:57:12;29.17;26.16
72128;DHT22;60000;51.030;7.024;2023-06-14T14:59:37;29.34;26.35
72128;DHT22;60000;51.030;7.024;2023-06-14T15:02:03;29.55;26.26
72128;DHT22;60000;51.030;7.024;2023-06-14T15:04:28;29.64;26.02
72128;DHT22;60000;51.030;7.024;2023-06-14T15:06:53;29.78;25.76
72128;DHT22;60000;51.030;7.024;2023-06-14T15:09:19;29.98;26.46
72128;DHT22;60000;51.030;7.024;2023-06-14T15:11:44;30.13;25.96
72128;DHT22;60000;51.030;7.024;2023-06-14T15:14:10;29.82;25.41
72128;DHT22;60000;51.030;7.024;2023-06-14T15:16:35;29.54;25.92
72128;DHT22;60000;51.030;7.024;2023-06-14T15:19:01;29.28;25.71
72128;DHT22;60000;51.030;7.024;2023-06-14T15:21:26;28.68;25.88
72128;DHT22;60000;51.030;7.024;2023-06-14T15:23:52;28.52;26.53
72128;DHT22;60000;51.030;7.024;2023-06-14T15:26:18;28.38;27.14
72128;DHT22;60000;51.030;7.024;2023-06-14T15:28:44;28.41;26.64
72128;DHT22;60000;51.030;7.024;2023-06-14T15:31:09;28.35;26.99
72128;DHT22;60000;51.030;7.024;2023-06-14T15:33:35;28.35;26.94
72128;DHT22;60000;51.030;7.024;2023-06-14T15:36:00;28.51;26.35
72128;DHT22;60000;51.030;7.024;2023-06-14T15:38:25;28.63;26.76